Time,TemperatureF,DewpointF,PressureIn,WindDirection,WindDirectionDegrees,WindSpeedMPH,WindSpeedGustMPH,Humidity,HourlyPrecipIn,Conditions,Clouds,dailyrainin,SolarRadiationWatts/m^2,SoftwareType,DateUTC
2013-09-24 00:11:00,52.9,47.0,30.00,ESE,104,0.0,7.0,79,0.00,,,0.00,0,weatherlink.com 1.10,2013-09-24 04:11:00,
2013-09-24 00:26:00,52.6,46.0,30.00,ESE,106,2.0,7.0,79,0.00,,,0.00,0,weatherlink.com 1.10,2013-09-24 04:26:00,
2013-09-24 00:41:00,52.2,46.0,30.00,ESE,105,1.0,4.0,79,0.00,,,0.00,0,weatherlink.com 1.10,2013-09-24 04:41:00,
2013-09-24 00:56:00,51.7,46.0,30.00,East,100,3.0,6.0,80,0.00,,,0.00,0,weatherlink.com 1.10,2013-09-24 04:56:00,
2013-09-24 01:11:00,51.1,46.0,30.00,East,100,1.0,3.0,82,0.00,,,0.00,0,weatherlink.com 1.10,2013-09-24 05:11:00,
2013-09-24 01:26:00,50.6,46.0,30.00,East,100,1.0,3.0,83,0.00,,,0.00,0,weatherlink.com 1.10,2013-09-24 05:26:00,
2013-09-24 01:41:00,50.1,46.0,30.00,East,100,0.0,2.0,84,0.00,,,0.00,0,weatherlink.com 1.10,2013-09-24 05:41:00,
2013-09-24 01:56:00,49.6,45.0,30.00,East,100,0.0,1.0,85,0.00,,,0.00,0,weatherlink.com 1.10,2013-09-24 05:56:00,
2013-09-24 02:11:00,49.2,45.0,30.00,East,100,1.0,1.0,86,0.00,,,0.00,0,weatherlink.com 1.10,2013-09-24 06:11:00,
2013-09-24 02:26:00,48.8,45.0,30.00,East,100,0.0,2.0,86,0.00,,,0.00,0,weatherlink.com 1.10,2013-09-24 06:26:00,
2013-09-24 02:41:00,48.6,45.0,30.00,East,100,2.0,5.0,86,0.00,,,0.00,0,weatherlink.com 1.10,2013-09-24 06:41:00,
2013-09-24 02:56:00,48.4,45.0,30.00,East,100,2.0,6.0,87,0.00,,,0.00,0,weatherlink.com 1.10,2013-09-24 06:56:00,
2013-09-24 03:11:00,48.3,44.0,30.00,East,100,1.0,5.0,86,0.00,,,0.00,0,weatherlink.com 1.10,2013-09-24 07:11:00,
2013-09-24 03:27:00,48.1,44.0,30.00,East,100,3.0,5.0,86,0.00,,,0.00,0,weatherlink.com 1.10,2013-09-24 07:27:00,
2013-09-24 03:42:00,47.8,44.0,30.00,East,100,3.0,5.0,87,0.00,,,0.00,0,weatherlink.com 1.10,2013-09-24 07:42:00,
2013-09-24 03:57:00,47.6,44.0,30.00,East,100,3.0,5.0,87,0.00,,,0.00,0,weatherlink.com 1.10,2013-09-24 07:57:00,
2013-09-24 04:12:00,47.3,44.0,30.00,East,100,1.0,5.0,88,0.00,,,0.00,0,weatherlink.com 1.10,2013-09-24 08:12:00,
2013-09-24 04:27:00,47.2,44.0,30.00,East,100,2.0,5.0,88,0.00,,,0.00,0,weatherlink.com 1.10,2013-09-24 08:27:00,
2013-09-24 04:42:00,47.0,44.0,30.00,East,100,1.0,3.0,88,0.00,,,0.00,0,weatherlink.com 1.10,2013-09-24 08:42:00,
2013-09-24 04:57:00,46.8,44.0,30.00,East,100,1.0,3.0,89,0.00,,,0.00,0,weatherlink.com 1.10,2013-09-24 08:57:00,
2013-09-24 05:12:00,46.7,44.0,30.01,East,100,2.0,5.0,89,0.00,,,0.00,0,weatherlink.com 1.10,2013-09-24 09:12:00,
2013-09-24 05:27:00,46.5,44.0,30.01,East,100,2.0,3.0,89,0.00,,,0.00,0,weatherlink.com 1.10,2013-09-24 09:27:00,
2013-09-24 05:42:00,46.3,44.0,30.01,East,100,2.0,3.0,90,0.00,,,0.00,0,weatherlink.com 1.10,2013-09-24 09:42:00,
2013-09-24 05:57:00,46.2,44.0,30.01,East,100,1.0,3.0,90,0.00,,,0.00,0,weatherlink.com 1.10,2013-09-24 09:57:00,
2013-09-24 06:12:00,46.0,44.0,30.01,East,100,1.0,3.0,91,0.00,,,0.00,0,weatherlink.com 1.10,2013-09-24 10:12:00,
2013-09-24 06:27:00,45.8,43.0,30.02,East,100,1.0,2.0,91,0.00,,,0.00,0,weatherlink.com 1.10,2013-09-24 10:27:00,
2013-09-24 06:42:00,45.6,44.0,30.02,East,100,0.0,2.0,92,0.00,,,0.00,0,weatherlink.com 1.10,2013-09-24 10:42:00,
2013-09-24 06:57:00,45.5,43.0,30.02,East,100,2.0,2.0,92,0.00,,,0.00,0,weatherlink.com 1.10,2013-09-24 10:57:00,
2013-09-24 07:12:00,45.3,43.0,30.02,East,100,0.0,2.0,92,0.00,,,0.00,0,weatherlink.com 1.10,2013-09-24 11:12:00,
2013-09-24 07:27:00,45.2,43.0,30.02,East,100,0.0,3.0,92,0.00,,,0.00,0,weatherlink.com 1.10,2013-09-24 11:27:00,
2013-09-24 07:42:00,45.3,43.0,30.02,East,100,1.0,3.0,92,0.00,,,0.00,11,weatherlink.com 1.10,2013-09-24 11:42:00,
2013-09-24 07:57:00,45.6,44.0,30.02,East,100,1.0,2.0,93,0.00,,,0.00,19,weatherlink.com 1.10,2013-09-24 11:57:00,
2013-09-24 08:12:00,46.2,44.0,30.02,East,100,0.0,3.0,92,0.00,,,0.00,33,weatherlink.com 1.10,2013-09-24 12:12:00,
2013-09-24 08:27:00,47.2,45.0,30.02,East,100,0.0,3.0,91,0.00,,,0.00,69,weatherlink.com 1.10,2013-09-24 12:27:00,
2013-09-24 08:42:00,48.4,45.0,30.01,East,100,1.0,5.0,89,0.00,,,0.00,114,weatherlink.com 1.10,2013-09-24 12:42:00,
2013-09-24 08:58:00,49.9,46.0,30.01,ESE,117,1.0,7.0,87,0.00,,,0.00,162,weatherlink.com 1.10,2013-09-24 12:58:00,
2013-09-24 09:13:00,51.4,47.0,30.02,East,98,2.0,10.0,84,0.00,,,0.00,218,weatherlink.com 1.10,2013-09-24 13:13:00,
2013-09-24 09:28:00,52.6,47.0,30.02,ESE,117,0.0,7.0,82,0.00,,,0.00,272,weatherlink.com 1.10,2013-09-24 13:28:00,
2013-09-24 09:43:00,54.1,48.0,30.01,ESE,112,3.0,5.0,79,0.00,,,0.00,320,weatherlink.com 1.10,2013-09-24 13:43:00,
2013-09-24 09:58:00,54.7,48.0,30.01,SSE,149,0.0,8.0,77,0.00,,,0.00,367,weatherlink.com 1.10,2013-09-24 13:58:00,
2013-09-24 10:13:00,55.8,48.0,30.00,East,87,6.0,7.0,76,0.00,,,0.00,411,weatherlink.com 1.10,2013-09-24 14:13:00,
2013-09-24 10:28:00,56.5,49.0,30.00,ESE,121,1.0,9.0,75,0.00,,,0.00,455,weatherlink.com 1.10,2013-09-24 14:28:00,
2013-09-24 10:43:00,58.0,49.0,30.00,ESE,104,1.0,9.0,72,0.00,,,0.00,496,weatherlink.com 1.10,2013-09-24 14:43:00,
2013-09-24 10:58:00,58.9,49.0,30.00,SE,125,10.0,10.0,69,0.00,,,0.00,534,weatherlink.com 1.10,2013-09-24 14:58:00,
2013-09-24 11:13:00,60.0,49.0,29.99,SE,125,0.0,8.0,68,0.00,,,0.00,570,weatherlink.com 1.10,2013-09-24 15:13:00,
2013-09-24 11:28:00,60.5,49.0,29.98,ESE,117,8.0,10.0,66,0.00,,,0.00,603,weatherlink.com 1.10,2013-09-24 15:28:00,
2013-09-24 11:43:00,61.3,49.0,29.98,SE,133,4.0,9.0,65,0.00,,,0.00,633,weatherlink.com 1.10,2013-09-24 15:43:00,
2013-09-24 11:58:00,62.9,50.0,29.97,ENE,70,4.0,9.0,62,0.00,,,0.00,661,weatherlink.com 1.10,2013-09-24 15:58:00,
2013-09-24 12:13:00,63.0,49.0,29.96,ENE,77,3.0,12.0,61,0.00,,,0.00,689,weatherlink.com 1.10,2013-09-24 16:13:00,
2013-09-24 12:29:00,63.8,49.0,29.96,East,93,9.0,9.0,59,0.00,,,0.00,708,weatherlink.com 1.10,2013-09-24 16:29:00,
2013-09-24 12:44:00,63.8,49.0,29.95,SE,125,3.0,11.0,58,0.00,,,0.00,728,weatherlink.com 1.10,2013-09-24 16:44:00,
2013-09-24 12:59:00,64.3,49.0,29.95,ESE,102,3.0,8.0,58,0.00,,,0.00,738,weatherlink.com 1.10,2013-09-24 16:59:00,
2013-09-24 13:14:00,65.4,49.0,29.94,East,87,3.0,9.0,55,0.00,,,0.00,752,weatherlink.com 1.10,2013-09-24 17:14:00,
2013-09-24 13:29:00,65.5,49.0,29.93,ESE,109,5.0,11.0,55,0.00,,,0.00,758,weatherlink.com 1.10,2013-09-24 17:29:00,
2013-09-24 13:44:00,66.0,49.0,29.93,ENE,70,5.0,11.0,54,0.00,,,0.00,759,weatherlink.com 1.10,2013-09-24 17:44:00,
2013-09-24 13:59:00,66.1,49.0,29.92,East,92,1.0,9.0,54,0.00,,,0.00,759,weatherlink.com 1.10,2013-09-24 17:59:00,
2013-09-24 14:14:00,66.6,49.0,29.92,ENE,66,7.0,10.0,53,0.00,,,0.00,752,weatherlink.com 1.10,2013-09-24 18:14:00,
2013-09-24 14:29:00,67.0,49.0,29.91,ENE,69,7.0,11.0,52,0.00,,,0.00,747,weatherlink.com 1.10,2013-09-24 18:29:00,
2013-09-24 14:44:00,67.3,49.0,29.91,ENE,76,3.0,10.0,52,0.00,,,0.00,735,weatherlink.com 1.10,2013-09-24 18:44:00,
2013-09-24 14:59:00,67.6,49.0,29.90,ENE,58,5.0,10.0,52,0.00,,,0.00,714,weatherlink.com 1.10,2013-09-24 18:59:00,
2013-09-24 15:14:00,68.1,49.0,29.90,East,95,3.0,11.0,51,0.00,,,0.00,693,weatherlink.com 1.10,2013-09-24 19:14:00,
2013-09-24 15:29:00,68.2,49.0,29.89,East,92,6.0,9.0,50,0.00,,,0.00,675,weatherlink.com 1.10,2013-09-24 19:29:00,
2013-09-24 15:44:00,68.4,48.0,29.90,SSE,155,1.0,7.0,49,0.00,,,0.00,650,weatherlink.com 1.10,2013-09-24 19:44:00,
2013-09-24 15:59:00,68.8,49.0,29.90,SE,133,4.0,8.0,50,0.00,,,0.00,619,weatherlink.com 1.10,2013-09-24 19:59:00,
2013-09-24 16:14:00,69.0,48.0,29.87,East,80,0.0,10.0,48,0.00,,,0.00,587,weatherlink.com 1.10,2013-09-24 20:14:00,
2013-09-24 16:29:00,69.1,48.0,29.88,ESE,118,2.0,7.0,48,0.00,,,0.00,550,weatherlink.com 1.10,2013-09-24 20:29:00,
2013-09-24 16:44:00,69.0,48.0,29.87,East,91,9.0,10.0,47,0.00,,,0.00,513,weatherlink.com 1.10,2013-09-24 20:44:00,
2013-09-24 16:59:00,69.0,47.0,29.85,ENE,62,3.0,10.0,46,0.00,,,0.00,476,weatherlink.com 1.10,2013-09-24 20:59:00,
2013-09-24 17:14:00,69.3,48.0,29.84,East,84,5.0,11.0,46,0.00,,,0.00,434,weatherlink.com 1.10,2013-09-24 21:14:00,
2013-09-24 17:44:00,68.3,48.0,29.86,East,99,2.0,10.0,48,0.00,,,0.00,343,weatherlink.com 1.10,2013-09-24 21:44:00,
2013-09-24 17:59:00,68.3,48.0,29.86,ESE,122,7.0,8.0,48,0.00,,,0.00,294,weatherlink.com 1.10,2013-09-24 21:59:00,
2013-09-24 18:14:00,67.8,48.0,29.86,ESE,105,3.0,10.0,49,0.00,,,0.00,241,weatherlink.com 1.10,2013-09-24 22:14:00,
2013-09-24 18:29:00,67.7,48.0,29.88,SE,141,5.0,6.0,49,0.00,,,0.00,183,weatherlink.com 1.10,2013-09-24 22:29:00,
2013-09-24 18:44:00,67.3,48.0,29.88,ESE,103,3.0,10.0,50,0.00,,,0.00,123,weatherlink.com 1.10,2013-09-24 22:44:00,
2013-09-24 19:00:00,66.8,48.0,29.88,ESE,104,2.0,4.0,51,0.00,,,0.00,44,weatherlink.com 1.10,2013-09-24 23:00:00,
2013-09-24 19:15:00,66.3,49.0,29.88,ESE,104,1.0,5.0,54,0.00,,,0.00,33,weatherlink.com 1.10,2013-09-24 23:15:00,
2013-09-24 19:30:00,65.2,48.0,29.87,ESE,104,2.0,4.0,55,0.00,,,0.00,9,weatherlink.com 1.10,2013-09-24 23:30:00,
2013-09-24 19:45:00,64.3,49.0,29.86,ESE,104,0.0,2.0,57,0.00,,,0.00,0,weatherlink.com 1.10,2013-09-24 23:45:00,
2013-09-24 20:00:00,63.1,49.0,29.87,ESE,104,0.0,1.0,61,0.00,,,0.00,0,weatherlink.com 1.10,2013-09-25 00:00:00,
2013-09-24 20:15:00,62.0,50.0,29.88,ESE,104,0.0,0.0,65,0.00,,,0.00,0,weatherlink.com 1.10,2013-09-25 00:15:00,
2013-09-24 20:30:00,60.7,50.0,29.88,ESE,104,0.0,0.0,68,0.00,,,0.00,0,weatherlink.com 1.10,2013-09-25 00:30:00,
2013-09-24 20:45:00,59.0,50.0,29.88,ESE,104,0.0,1.0,72,0.00,,,0.00,0,weatherlink.com 1.10,2013-09-25 00:45:00,
2013-09-24 21:00:00,58.3,49.0,29.87,ESE,104,1.0,5.0,72,0.00,,,0.00,0,weatherlink.com 1.10,2013-09-25 01:00:00,
2013-09-24 21:15:00,58.9,49.0,29.87,ESE,104,0.0,3.0,70,0.00,,,0.00,0,weatherlink.com 1.10,2013-09-25 01:15:00,
2013-09-24 21:30:00,58.8,49.0,29.87,ESE,104,0.0,0.0,71,0.00,,,0.00,0,weatherlink.com 1.10,2013-09-25 01:30:00,
2013-09-24 21:45:00,58.0,50.0,29.87,ESE,104,0.0,0.0,74,0.00,,,0.00,0,weatherlink.com 1.10,2013-09-25 01:45:00,
2013-09-24 22:00:00,57.0,50.0,29.87,ESE,104,0.0,0.0,76,0.00,,,0.00,0,weatherlink.com 1.10,2013-09-25 02:00:00,
2013-09-24 22:15:00,55.8,49.0,29.87,ESE,104,0.0,1.0,78,0.00,,,0.00,0,weatherlink.com 1.10,2013-09-25 02:15:00,
2013-09-24 22:30:00,55.4,49.0,29.87,ESE,104,0.0,1.0,79,0.00,,,0.00,0,weatherlink.com 1.10,2013-09-25 02:30:00,
2013-09-24 22:45:00,54.9,49.0,29.87,ESE,104,0.0,1.0,80,0.00,,,0.00,0,weatherlink.com 1.10,2013-09-25 02:45:00,
2013-09-24 23:00:00,54.5,49.0,29.87,ESE,104,0.0,0.0,81,0.00,,,0.00,0,weatherlink.com 1.10,2013-09-25 03:00:00,
2013-09-24 23:15:00,54.0,49.0,29.87,ESE,104,0.0,1.0,82,0.00,,,0.00,0,weatherlink.com 1.10,2013-09-25 03:15:00,
2013-09-24 23:30:00,53.7,48.0,29.87,ESE,104,1.0,3.0,80,0.00,,,0.00,0,weatherlink.com 1.10,2013-09-25 03:30:00,
2013-09-24 23:45:00,54.3,48.0,29.87,ESE,104,1.0,4.0,79,0.00,,,0.00,0,weatherlink.com 1.10,2013-09-25 03:45:00,